Time;durP1;ratioP1;P1;durP2;ratioP2;P2;SDS_P1;SDS_P2;PMS_P1;PMS_P2;Temp;Humidity;BMP_temperature;BMP_pressure;BME280_temperature;BME280_humidity;BME280_pressure;Samples;Min_cycle;Max_cycle;Signal;HPM_P1;HPM_P2
2022/12/23 00:00:56;;;;;;;6.05;4.85;;;10.30;99.90;;;;;;5082393;28;20028;-77
2022/12/23 00:03:23;;;;;;;7.70;5.22;;;10.30;99.90;;;;;;5092430;28;20055;-76
2022/12/23 00:05:49;;;;;;;17.25;6.95;;;10.30;99.90;;;;;;5109737;28;20114;-77
2022/12/23 00:08:14;;;;;;;10.95;5.95;;;10.40;99.90;;;;;;5122582;28;20095;-76
2022/12/23 00:10:41;;;;;;;11.15;5.10;;;10.40;99.90;;;;;;5111863;28;20074;-77
2022/12/23 00:16:06;;;;;;;11.27;5.88;;;10.40;99.90;;;;;;5112726;28;20063;-77
2022/12/23 00:18:33;;;;;;;14.55;5.78;;;10.40;99.90;;;;;;5128897;28;20028;-77
2022/12/23 00:21:00;;;;;;;7.75;5.97;;;10.40;99.90;;;;;;5110956;28;20023;-76
2022/12/23 00:23:26;;;;;;;10.25;7.00;;;10.40;99.90;;;;;;5112487;28;20028;-77
2022/12/23 00:25:52;;;;;;;13.45;6.70;;;10.40;99.90;;;;;;5108836;28;20039;-76
2022/12/23 00:28:21;;;;;;;10.05;5.22;;;10.40;99.90;;;;;;5107710;28;20095;-77
2022/12/23 00:30:52;;;;;;;7.10;5.50;;;10.10;99.90;;;;;;5107792;28;20035;-77
2022/12/23 00:33:24;;;;;;;18.60;7.93;;;10.40;99.90;;;;;;5108611;28;20024;-77
2022/12/23 00:35:50;;;;;;;13.90;6.82;;;10.40;99.90;;;;;;5108524;28;20055;-77
2022/12/23 00:42:52;;;;;;;13.23;6.05;;;10.40;99.90;;;;;;5110466;28;20022;-76
2022/12/23 00:43:49;;;;;;;7.47;5.22;;;10.40;99.90;;;;;;5110634;28;20035;-76
2022/12/23 00:46:15;;;;;;;8.50;5.63;;;10.40;99.90;;;;;;5093395;28;20024;-76
2022/12/23 00:51:26;;;;;;;12.95;6.65;;;10.40;99.90;;;;;;5127351;28;20042;-76
2022/12/23 00:53:51;;;;;;;18.45;9.13;;;10.40;99.90;;;;;;5092851;28;20027;-76
2022/12/23 00:56:17;;;;;;;12.45;6.70;;;10.50;99.90;;;;;;5128284;28;20020;-76
2022/12/23 00:58:43;;;;;;;12.57;6.00;;;10.50;99.90;;;;;;5092677;28;20427;-76
2022/12/23 01:06:38;;;;;;;12.90;6.40;;;10.50;99.90;;;;;;5096184;28;20032;-76
2022/12/23 01:09:03;;;;;;;12.63;7.28;;;10.40;99.90;;;;;;5095927;28;20028;-77
2022/12/23 01:11:29;;;;;;;9.63;6.75;;;10.50;99.90;;;;;;5128448;28;20122;-77
2022/12/23 01:13:57;;;;;;;8.73;7.32;;;10.50;99.90;;;;;;5093224;28;20040;-77
2022/12/23 01:16:22;;;;;;;10.88;5.35;;;10.50;99.90;;;;;;5110323;28;20083;-77
2022/12/23 01:18:48;;;;;;;8.10;6.10;;;10.50;99.90;;;;;;5093746;28;20038;-77
2022/12/23 01:21:14;;;;;;;11.18;6.60;;;10.50;99.90;;;;;;5108579;28;20096;-76
2022/12/23 01:23:40;;;;;;;9.57;6.93;;;10.50;99.90;;;;;;5090360;28;20114;-77
2022/12/23 01:26:07;;;;;;;6.72;5.15;;;10.40;99.90;;;;;;5108399;28;20362;-77
2022/12/23 01:28:34;;;;;;;7.63;6.85;;;10.40;99.90;;;;;;5108638;28;20028;-77
2022/12/23 01:31:01;;;;;;;9.38;7.65;;;10.00;99.90;;;;;;5108286;28;20020;-77
2022/12/23 01:33:27;;;;;;;14.82;6.63;;;10.50;99.90;;;;;;5090244;28;20028;-76
2022/12/23 01:36:05;;;;;;;14.82;6.20;;;10.50;99.90;;;;;;5107937;28;20039;-76
2022/12/23 01:38:31;;;;;;;7.40;6.60;;;10.50;99.90;;;;;;5109950;28;20031;-76
2022/12/23 01:40:57;;;;;;;7.85;5.88;;;10.40;99.90;;;;;;5109904;28;20026;-77
2022/12/23 01:43:50;;;;;;;14.10;6.20;;;10.40;99.90;;;;;;5110175;28;20115;-77
2022/12/23 01:46:16;;;;;;;9.65;7.03;;;10.40;99.90;;;;;;5110030;28;20034;-77
2022/12/23 01:48:46;;;;;;;10.60;5.70;;;10.40;99.90;;;;;;5110578;28;20031;-76
2022/12/23 01:51:18;;;;;;;;;;;10.50;99.90;;;;;;5106829;28;20103;-77
2022/12/23 01:53:51;;;;;;;8.73;7.07;;;10.50;99.90;;;;;;5107798;28;20258;-76
2022/12/23 01:56:34;;;;;;;8.43;5.70;;;10.50;99.90;;;;;;5107810;28;20028;-77
2022/12/23 01:59:08;;;;;;;6.80;6.30;;;10.50;99.90;;;;;;5109508;28;20028;-76
2022/12/23 02:04:23;;;;;;;11.57;6.90;;;10.50;99.90;;;;;;5108050;28;20451;-76
2022/12/23 02:09:37;;;;;;;9.35;7.38;;;10.50;99.90;;;;;;5088737;28;20062;-76
2022/12/23 02:12:12;;;;;;;9.73;7.65;;;10.50;99.90;;;;;;5088763;28;20020;-77
2022/12/23 02:17:47;;;;;;;13.63;8.18;;;10.50;99.90;;;;;;5109820;28;20094;-77
2022/12/23 02:20:43;;;;;;;20.30;9.55;;;10.50;99.90;;;;;;5109802;28;20024;-77
2022/12/23 02:23:27;;;;;;;12.38;8.32;;;10.50;99.90;;;;;;5127610;28;20034;-77
2022/12/23 02:26:05;;;;;;;14.90;9.73;;;10.60;99.90;;;;;;5127434;28;20065;-77
2022/12/23 02:28:49;;;;;;;11.18;8.10;;;10.50;99.90;;;;;;5118434;28;20032;-76
2022/12/23 02:31:20;;;;;;;12.35;8.48;;;10.60;99.90;;;;;;5105473;28;20044;-77
2022/12/23 02:34:05;;;;;;;10.13;8.90;;;10.60;99.90;;;;;;5106038;28;20043;-77
2022/12/23 02:37:03;;;;;;;13.95;8.93;;;10.60;99.90;;;;;;5105478;28;20056;-77
2022/12/23 02:39:49;;;;;;;10.35;8.07;;;10.60;99.90;;;;;;5105084;28;20050;-77
2022/12/23 02:42:19;;;;;;;10.65;9.68;;;10.50;99.90;;;;;;5106342;28;20084;-77
2022/12/23 02:45:06;;;;;;;10.88;7.95;;;10.50;99.90;;;;;;5088003;28;20554;-76
2022/12/23 02:47:39;;;;;;;10.02;7.50;;;10.50;99.90;;;;;;5106663;28;20036;-77
2022/12/23 02:50:17;;;;;;;14.18;8.95;;;10.40;99.90;;;;;;5106692;28;20119;-76
2022/12/23 02:52:46;;;;;;;14.23;7.38;;;10.40;99.90;;;;;;5105891;28;20054;-76
2022/12/23 02:55:17;;;;;;;15.40;8.27;;;10.40;99.90;;;;;;5107007;28;20085;-77
2022/12/23 02:57:46;;;;;;;8.43;7.55;;;10.40;99.90;;;;;;5107068;28;20111;-76
2022/12/23 03:00:14;;;;;;;9.73;7.57;;;10.40;99.90;;;;;;5110836;28;20020;-77
2022/12/23 03:02:41;;;;;;;13.35;7.68;;;10.40;99.90;;;;;;5108234;28;20028;-77
2022/12/23 03:05:40;;;;;;;6.75;6.07;;;10.40;99.90;;;;;;5108489;28;20039;-77
2022/12/23 03:08:16;;;;;;;13.68;6.38;;;10.30;99.90;;;;;;5105164;28;20421;-77
2022/12/23 03:11:00;;;;;;;12.07;6.95;;;10.30;99.90;;;;;;5105116;28;20031;-77
2022/12/23 03:13:50;;;;;;;10.68;7.05;;;10.30;99.90;;;;;;5105261;28;20027;-76
2022/12/23 03:16:16;;;;;;;;;;;10.30;99.90;;;;;;5119105;28;20051;-77
2022/12/23 03:18:45;;;;;;;14.50;6.95;;;10.30;99.90;;;;;;5108761;28;19929;-77
2022/12/23 03:21:32;;;;;;;11.85;6.28;;;10.30;99.90;;;;;;5091952;28;20031;-76
2022/12/23 03:24:13;;;;;;;9.40;8.25;;;10.30;99.90;;;;;;5112154;28;20038;-76
2022/12/23 03:26:47;;;;;;;7.65;6.57;;;10.20;99.90;;;;;;5112684;28;20055;-76
2022/12/23 03:29:39;;;;;;;8.88;6.20;;;10.20;99.90;;;;;;5130823;28;20036;-76
2022/12/23 03:32:07;;;;;;;10.35;6.68;;;10.20;99.90;;;;;;5112497;28;20110;-77
2022/12/23 03:34:37;;;;;;;8.10;6.35;;;10.20;99.90;;;;;;5110712;28;20031;-76
2022/12/23 03:37:06;;;;;;;8.95;6.40;;;10.20;99.90;;;;;;5110385;28;20046;-76
2022/12/23 03:39:39;;;;;;;10.75;6.15;;;10.20;99.90;;;;;;5108823;28;20013;-76
2022/12/23 03:42:13;;;;;;;9.55;6.03;;;10.20;99.90;;;;;;5091816;28;20042;-76
2022/12/23 03:44:46;;;;;;;7.22;5.28;;;10.20;99.90;;;;;;5091936;28;20053;-76
2022/12/23 03:47:18;;;;;;;14.75;6.13;;;10.20;99.90;;;;;;5110708;28;20035;-77
2022/12/23 03:49:55;;;;;;;13.48;6.60;;;10.20;99.90;;;;;;5095432;28;20400;-76
2022/12/23 03:52:31;;;;;;;9.38;6.65;;;10.20;99.90;;;;;;5130862;28;20038;-77
2022/12/23 03:55:02;;;;;;;12.88;5.93;;;10.20;99.90;;;;;;5130823;28;20038;-76
2022/12/23 03:57:40;;;;;;;10.98;7.60;;;10.20;99.90;;;;;;5130496;28;20441;-77
2022/12/23 04:00:07;;;;;;;18.60;8.13;;;10.20;99.90;;;;;;5112196;28;20023;-76
2022/12/23 04:02:56;;;;;;;12.15;8.00;;;10.20;99.90;;;;;;5079313;28;20038;-77
2022/12/23 04:05:25;;;;;;;10.13;7.30;;;10.20;99.90;;;;;;5122270;28;20069;-76
2022/12/23 04:08:00;;;;;;;16.38;7.85;;;10.20;99.90;;;;;;5130248;28;20089;-76
2022/12/23 04:10:27;;;;;;;10.82;7.43;;;10.10;99.90;;;;;;5111795;28;20064;-76
2022/12/23 04:12:53;;;;;;;9.75;7.53;;;10.20;99.90;;;;;;5112555;28;20079;-76
2022/12/23 04:15:22;;;;;;;13.75;7.93;;;10.10;99.90;;;;;;5111535;28;20051;-76
2022/12/23 04:17:49;;;;;;;15.82;8.35;;;10.20;99.90;;;;;;5112083;28;20086;-76
2022/12/23 04:20:15;;;;;;;11.80;7.50;;;10.20;99.90;;;;;;5107804;28;20012;-76
2022/12/23 04:22:42;;;;;;;12.43;8.68;;;10.20;99.90;;;;;;5090787;28;20039;-76
2022/12/23 04:25:09;;;;;;;10.95;8.40;;;10.20;99.90;;;;;;5107611;28;20028;-76
2022/12/23 04:27:35;;;;;;;9.82;7.30;;;10.20;99.90;;;;;;5107287;28;20034;-76
2022/12/23 04:30:01;;;;;;;15.32;9.02;;;10.10;99.90;;;;;;5107637;28;20055;-76
2022/12/23 04:32:27;;;;;;;17.65;9.77;;;10.20;99.90;;;;;;5108659;28;20056;-76
2022/12/23 04:34:53;;;;;;;12.35;8.48;;;10.20;99.90;;;;;;5110881;28;20020;-76
2022/12/23 04:37:18;;;;;;;17.20;8.55;;;10.20;99.90;;;;;;5111659;28;20358;-76
2022/12/23 04:39:44;;;;;;;8.52;7.40;;;10.20;99.90;;;;;;5110885;28;20032;-76
2022/12/23 04:42:10;;;;;;;15.88;9.68;;;10.10;99.90;;;;;;5094384;28;20015;-76
2022/12/23 04:44:36;;;;;;;12.23;8.23;;;10.20;99.90;;;;;;5129729;28;20062;-76
2022/12/23 04:47:01;;;;;;;12.40;9.50;;;10.10;99.90;;;;;;5129240;28;20038;-76
2022/12/23 04:49:27;;;;;;;16.02;8.05;;;10.20;99.90;;;;;;5074789;28;20027;-76
2022/12/23 04:51:53;;;;;;;10.63;6.43;;;10.20;99.90;;;;;;5109499;28;20070;-76
2022/12/23 04:54:19;;;;;;;14.25;8.98;;;10.20;99.90;;;;;;5073879;28;20055;-76
2022/12/23 04:56:44;;;;;;;13.48;8.82;;;10.20;99.90;;;;;;5090580;28;20428;-76
2022/12/23 04:59:10;;;;;;;11.05;7.55;;;10.10;99.90;;;;;;5090663;28;20143;-76
2022/12/23 05:01:36;;;;;;;18.40;7.30;;;10.10;99.90;;;;;;5108165;28;20020;-76
2022/12/23 05:04:02;;;;;;;12.57;8.93;;;10.10;99.90;;;;;;5109672;28;20385;-76
2022/12/23 05:06:28;;;;;;;13.23;9.43;;;10.10;99.90;;;;;;5111152;28;20027;-76
2022/12/23 05:08:53;;;;;;;15.63;8.63;;;10.10;99.90;;;;;;5110740;28;20058;-77
2022/12/23 05:11:19;;;;;;;15.52;10.25;;;10.10;99.90;;;;;;5128779;28;20111;-76
2022/12/23 05:13:45;;;;;;;9.38;8.10;;;10.10;99.90;;;;;;5110096;28;20055;-76
2022/12/23 05:16:11;;;;;;;13.02;8.40;;;10.10;99.90;;;;;;5110032;28;20054;-76
2022/12/23 05:18:37;;;;;;;12.77;11.40;;;10.20;99.90;;;;;;5128158;28;20024;-76
2022/12/23 05:21:03;;;;;;;10.32;8.23;;;10.10;99.90;;;;;;5093234;28;20091;-76
2022/12/23 05:23:29;;;;;;;8.85;7.95;;;10.10;99.90;;;;;;5110920;28;20038;-76
2022/12/23 05:25:54;;;;;;;16.90;10.45;;;10.20;99.90;;;;;;5093331;28;20437;-76
2022/12/23 05:28:21;;;;;;;9.93;8.35;;;10.10;99.90;;;;;;5128470;28;20035;-77
2022/12/23 05:30:47;;;;;;;7.95;7.15;;;10.10;99.90;;;;;;5128602;28;20039;-76
2022/12/23 05:33:13;;;;;;;11.13;8.45;;;10.10;99.90;;;;;;5093270;28;20041;-76
2022/12/23 05:35:39;;;;;;;10.10;7.60;;;10.10;99.90;;;;;;5106039;28;20027;-77
2022/12/23 05:38:05;;;;;;;7.15;6.45;;;10.20;99.90;;;;;;5107014;28;20027;-76
2022/12/23 05:40:31;;;;;;;9.40;7.78;;;10.10;99.90;;;;;;5106207;28;20025;-76
2022/12/23 05:42:57;;;;;;;15.23;7.55;;;10.10;99.90;;;;;;5106389;28;20035;-76
2022/12/23 05:45:23;;;;;;;12.75;7.80;;;10.10;99.90;;;;;;5105885;28;20031;-76
2022/12/23 05:47:49;;;;;;;14.52;7.13;;;10.10;99.90;;;;;;5070951;28;20594;-76
2022/12/23 05:50:14;;;;;;;16.77;8.80;;;10.10;99.90;;;;;;5076977;28;20054;-76
2022/12/23 05:52:40;;;;;;;7.00;6.30;;;10.10;99.90;;;;;;5074516;28;20123;-76
2022/12/23 05:55:07;;;;;;;15.38;6.63;;;10.10;99.90;;;;;;5078620;28;20036;-76
2022/12/23 05:57:33;;;;;;;14.05;7.88;;;10.00;99.90;;;;;;5088431;28;20028;-77
2022/12/23 05:59:59;;;;;;;8.05;7.10;;;10.00;99.90;;;;;;5088791;28;20030;-76
2022/12/23 06:02:24;;;;;;;15.02;8.70;;;10.00;99.90;;;;;;5093670;28;20020;-77
2022/12/23 06:04:50;;;;;;;12.63;8.02;;;10.00;99.90;;;;;;5076725;28;20033;-77
2022/12/23 06:07:16;;;;;;;15.90;8.63;;;10.00;99.90;;;;;;5079496;28;20494;-77
2022/12/23 06:09:42;;;;;;;22.20;8.68;;;9.90;99.90;;;;;;5071513;28;20024;-77
2022/12/23 06:12:08;;;;;;;13.30;8.63;;;9.90;99.90;;;;;;5069787;28;20032;-76
2022/12/23 06:14:34;;;;;;;11.23;7.68;;;9.90;99.90;;;;;;5059053;28;20049;-76
2022/12/23 06:17:00;;;;;;;13.57;8.80;;;9.90;99.90;;;;;;5072571;28;20020;-76
2022/12/23 06:19:25;;;;;;;11.23;8.35;;;9.90;99.90;;;;;;5056858;28;20025;-76
2022/12/23 06:21:51;;;;;;;14.50;9.98;;;9.90;99.90;;;;;;5076196;28;20486;-76
2022/12/23 06:24:17;;;;;;;13.05;8.07;;;9.90;99.90;;;;;;5031683;28;20028;-76
2022/12/23 06:26:43;;;;;;;18.60;7.32;;;9.90;99.90;;;;;;5072438;28;20036;-77
2022/12/23 06:29:10;;;;;;;16.33;9.40;;;9.90;99.90;;;;;;5088817;28;20033;-77
2022/12/23 06:31:36;;;;;;;9.40;7.60;;;9.90;99.90;;;;;;5088861;28;20035;-77
2022/12/23 06:34:02;;;;;;;15.38;8.25;;;9.90;99.90;;;;;;5090256;28;20044;-77
2022/12/23 06:36:28;;;;;;;13.85;9.52;;;9.90;99.90;;;;;;5071487;28;20021;-76
2022/12/23 06:38:53;;;;;;;9.85;7.43;;;9.90;99.90;;;;;;5077719;28;20021;-76
2022/12/23 06:41:19;;;;;;;12.18;8.90;;;9.90;99.90;;;;;;5069472;28;20478;-77
2022/12/23 06:43:45;;;;;;;9.35;8.48;;;9.90;99.90;;;;;;5069578;28;20025;-76
2022/12/23 06:46:11;;;;;;;16.77;9.02;;;9.90;99.90;;;;;;5051307;28;20052;-77
2022/12/23 06:48:37;;;;;;;9.00;7.75;;;9.90;99.90;;;;;;5069412;28;20057;-76
2022/12/23 06:51:02;;;;;;;13.35;8.60;;;9.90;99.90;;;;;;5084818;28;20125;-77
2022/12/23 06:53:28;;;;;;;18.95;8.70;;;9.90;99.90;;;;;;5069113;28;20028;-76
2022/12/23 06:56:02;;;;;;;13.77;5.78;;;9.90;99.90;;;;;;5068674;28;20033;-77
2022/12/23 06:58:28;;;;;;;15.85;8.13;;;9.90;99.90;;;;;;5070464;28;20025;-77
2022/12/23 07:00:54;;;;;;;29.45;21.33;;;9.90;99.90;;;;;;5072153;28;20078;-76
2022/12/23 07:03:20;;;;;;;16.58;9.85;;;9.90;99.90;;;;;;5097900;28;20076;-77
2022/12/23 07:05:52;;;;;;;11.23;8.00;;;9.90;99.90;;;;;;5074533;28;20032;-77
2022/12/23 07:08:18;;;;;;;8.13;7.25;;;9.90;99.90;;;;;;5074006;28;20044;-77
2022/12/23 07:10:44;;;;;;;10.23;6.78;;;9.90;99.90;;;;;;5092114;28;20021;-77
2022/12/23 07:13:11;;;;;;;16.20;7.13;;;9.90;99.90;;;;;;5090686;28;20037;-76
2022/12/23 07:15:37;;;;;;;10.57;6.30;;;9.90;99.90;;;;;;5131996;28;20046;-77
2022/12/23 07:18:04;;;;;;;11.80;10.57;;;9.90;99.90;;;;;;5114318;28;20087;-76
2022/12/23 07:20:30;;;;;;;16.38;9.23;;;9.90;99.90;;;;;;5085665;28;20053;-76
2022/12/23 07:22:56;;;;;;;8.38;7.13;;;9.90;99.90;;;;;;5073086;28;20394;-77
2022/12/23 07:25:23;;;;;;;10.35;7.32;;;9.90;99.90;;;;;;5091090;28;20484;-77
2022/12/23 07:27:54;;;;;;;10.63;7.00;;;9.90;99.90;;;;;;5072500;28;20041;-76
2022/12/23 07:30:20;;;;;;;17.58;7.47;;;9.80;99.90;;;;;;5073092;28;20085;-76
2022/12/23 07:32:52;;;;;;;11.15;7.47;;;9.80;99.90;;;;;;5072300;28;20043;-77
2022/12/23 07:35:18;;;;;;;12.45;8.43;;;9.90;99.90;;;;;;5107670;28;20030;-77
2022/12/23 07:37:44;;;;;;;36.60;28.10;;;9.90;99.90;;;;;;5110162;28;20051;-77
2022/12/23 07:40:11;;;;;;;11.65;8.63;;;9.80;99.90;;;;;;5129645;28;20072;-76
2022/12/23 07:42:37;;;;;;;11.32;8.35;;;9.80;99.90;;;;;;5097660;28;20024;-76
2022/12/23 07:45:03;;;;;;;12.63;8.05;;;9.90;99.90;;;;;;5095170;28;20080;-76
2022/12/23 07:47:30;;;;;;;13.30;7.70;;;9.90;99.90;;;;;;5123751;28;20055;-76
2022/12/23 07:49:55;;;;;;;9.82;6.47;;;9.90;99.90;;;;;;5093381;28;20044;-76
2022/12/23 07:52:21;;;;;;;11.10;7.45;;;9.80;99.90;;;;;;5074835;28;20039;-77
2022/12/23 07:54:47;;;;;;;10.00;7.22;;;9.80;99.90;;;;;;5113976;28;20045;-77
2022/12/23 07:57:13;;;;;;;9.48;5.45;;;9.70;99.90;;;;;;5084029;28;20050;-76
2022/12/23 07:59:39;;;;;;;16.58;7.20;;;9.70;99.90;;;;;;5110639;28;20024;-77
2022/12/23 08:02:05;;;;;;;14.98;6.60;;;9.70;99.90;;;;;;5119979;28;20095;-76
2022/12/23 08:04:30;;;;;;;11.68;7.43;;;9.80;99.90;;;;;;5097957;28;20040;-76
2022/12/23 08:06:56;;;;;;;10.38;7.60;;;9.80;99.90;;;;;;5124973;28;20115;-76
2022/12/23 08:09:22;;;;;;;15.60;6.32;;;9.80;99.90;;;;;;5080301;28;20028;-76
2022/12/23 08:11:48;;;;;;;14.50;6.55;;;9.70;99.90;;;;;;5091465;28;20035;-76
2022/12/23 08:14:14;;;;;;;15.13;10.60;;;9.70;99.90;;;;;;5109464;28;20044;-77
2022/12/23 08:16:39;;;;;;;12.88;10.70;;;9.70;99.90;;;;;;5065021;28;20052;-77
2022/12/23 08:19:05;;;;;;;11.90;10.10;;;9.80;99.90;;;;;;5070349;28;20054;-76
2022/12/23 08:21:31;;;;;;;15.18;9.55;;;9.80;99.90;;;;;;5091500;28;20036;-77
2022/12/23 08:23:57;;;;;;;12.88;10.35;;;9.80;99.90;;;;;;5091420;28;20020;-76
2022/12/23 08:26:24;;;;;;;10.73;8.07;;;9.80;99.90;;;;;;5081553;28;20039;-76
2022/12/23 08:28:53;;;;;;;9.85;6.63;;;9.80;99.90;;;;;;5108536;28;20099;-76
2022/12/23 08:31:27;;;;;;;11.32;8.60;;;9.80;99.90;;;;;;5108461;28;20027;-76
2022/12/23 08:33:55;;;;;;;14.32;6.57;;;9.80;99.90;;;;;;5094261;28;20034;-76
2022/12/23 08:36:24;;;;;;;12.15;8.30;;;9.90;99.90;;;;;;5126548;28;20053;-75
2022/12/23 08:38:53;;;;;;;13.63;7.70;;;9.90;99.90;;;;;;5128168;28;20177;-76
2022/12/23 08:41:25;;;;;;;12.10;7.57;;;9.80;99.90;;;;;;5128540;28;20023;-76
2022/12/23 08:43:52;;;;;;;8.68;5.28;;;9.90;99.90;;;;;;5102072;28;20477;-76
2022/12/23 08:46:18;;;;;;;12.73;7.07;;;9.90;99.90;;;;;;5073229;28;20023;-76
2022/12/23 08:48:44;;;;;;;8.35;6.03;;;9.90;99.90;;;;;;5108121;28;20024;-76
2022/12/23 08:51:12;;;;;;;12.38;5.75;;;9.90;99.90;;;;;;5107881;28;20066;-76
2022/12/23 08:53:39;;;;;;;15.95;7.25;;;9.90;99.90;;;;;;5089541;28;20020;-76
2022/12/23 08:56:08;;;;;;;22.30;19.98;;;9.80;99.90;;;;;;5107641;28;20047;-76
2022/12/23 08:58:39;;;;;;;21.13;18.08;;;9.80;99.90;;;;;;5096829;28;20032;-76
2022/12/23 09:01:08;;;;;;;9.38;6.70;;;9.80;99.90;;;;;;5110608;28;20028;-75
2022/12/23 09:03:35;;;;;;;6.95;4.75;;;9.80;99.90;;;;;;5128780;28;20023;-75
2022/12/23 09:06:08;;;;;;;11.70;6.38;;;9.80;99.90;;;;;;5110256;28;20038;-76
2022/12/23 09:08:35;;;;;;;9.85;6.05;;;9.80;99.90;;;;;;5128167;28;20027;-76
2022/12/23 09:11:01;;;;;;;10.90;6.45;;;9.80;99.90;;;;;;5109792;28;20055;-76
2022/12/23 09:13:27;;;;;;;10.63;7.30;;;9.80;99.90;;;;;;5080568;28;20029;-76
2022/12/23 09:15:53;;;;;;;11.77;6.55;;;9.80;99.90;;;;;;5052424;28;20044;-75
2022/12/23 09:18:19;;;;;;;13.00;6.70;;;9.80;99.90;;;;;;5069137;28;20029;-75
2022/12/23 09:20:45;;;;;;;8.93;8.02;;;9.70;99.90;;;;;;5086604;28;20020;-76
2022/12/23 09:23:11;;;;;;;9.32;7.25;;;9.70;99.90;;;;;;5069548;28;20062;-75
2022/12/23 09:25:37;;;;;;;11.85;6.50;;;9.70;99.90;;;;;;5068861;28;20032;-76
2022/12/23 09:28:04;;;;;;;7.80;5.03;;;9.60;99.90;;;;;;5095981;28;20038;-75
2022/12/23 09:30:30;;;;;;;8.98;6.40;;;9.60;99.90;;;;;;5127328;28;20103;-75
2022/12/23 09:32:56;;;;;;;6.63;5.95;;;9.60;99.90;;;;;;5127309;28;20028;-76
2022/12/23 09:35:22;;;;;;;8.32;6.30;;;9.60;99.90;;;;;;5092137;28;20031;-76
2022/12/23 09:37:48;;;;;;;11.48;7.45;;;9.60;99.90;;;;;;5127396;28;20024;-76
2022/12/23 09:40:18;;;;;;;7.13;6.00;;;9.60;99.90;;;;;;5127353;28;20035;-76
2022/12/23 09:43:30;;;;;;;6.15;5.57;;;9.60;99.90;;;;;;5081905;28;20025;-75
2022/12/23 09:46:17;;;;;;;7.68;6.18;;;9.60;99.90;;;;;;5055759;28;20047;-76
2022/12/23 09:48:53;;;;;;;10.95;5.45;;;9.70;99.90;;;;;;5085413;28;20021;-76
2022/12/23 09:51:22;;;;;;;14.55;7.63;;;9.70;99.90;;;;;;5068582;28;20105;-75
2022/12/23 09:54:11;;;;;;;6.85;6.25;;;9.70;99.90;;;;;;5069093;28;20035;-76
2022/12/23 09:56:59;;;;;;;9.50;5.22;;;9.80;99.90;;;;;;5085601;28;20058;-76
2022/12/23 09:59:43;;;;;;;15.02;7.95;;;9.80;99.90;;;;;;5075284;28;20028;-76
2022/12/23 10:02:24;;;;;;;13.50;8.30;;;9.90;99.90;;;;;;5107024;28;20047;-76
2022/12/23 10:04:55;;;;;;;9.88;6.68;;;9.90;99.90;;;;;;5107167;28;20089;-76
2022/12/23 10:07:46;;;;;;;8.23;7.00;;;9.90;99.90;;;;;;5106986;28;20092;-76
2022/12/23 10:10:24;;;;;;;11.32;8.68;;;9.90;99.90;;;;;;5088673;28;20135;-76
2022/12/23 10:12:52;;;;;;;8.32;5.45;;;9.90;99.90;;;;;;5109347;28;20028;-76
2022/12/23 10:15:29;;;;;;;7.75;6.03;;;9.90;99.90;;;;;;5126805;28;20040;-76
2022/12/23 10:18:00;;;;;;;4.90;4.53;;;9.90;99.90;;;;;;5127489;28;20028;-76
2022/12/23 10:20:46;;;;;;;6.75;4.50;;;9.80;99.90;;;;;;5127222;28;20028;-76
2022/12/23 10:23:27;;;;;;;5.25;4.60;;;9.80;99.90;;;;;;5112673;28;20088;-76
2022/12/23 10:25:53;;;;;;;7.15;5.47;;;9.90;99.90;;;;;;5072570;28;20085;-76
2022/12/23 10:28:19;;;;;;;9.88;6.78;;;9.90;99.90;;;;;;5115274;28;20020;-76
2022/12/23 10:30:59;;;;;;;5.65;4.50;;;9.90;99.90;;;;;;5108154;28;20032;-76
2022/12/23 10:33:53;;;;;;;4.07;3.45;;;10.00;99.90;;;;;;5092983;28;20024;-76
2022/12/23 10:36:33;;;;;;;6.82;3.28;;;10.00;99.90;;;;;;5091621;28;20393;-76
2022/12/23 10:39:15;;;;;;;6.97;4.85;;;10.00;99.90;;;;;;5091355;28;20032;-76
2022/12/23 10:42:02;;;;;;;3.47;3.17;;;10.00;99.90;;;;;;5110700;28;20072;-76
2022/12/23 10:44:56;;;;;;;4.95;4.45;;;9.90;99.90;;;;;;5090680;28;20036;-76
2022/12/23 10:47:42;;;;;;;9.88;4.07;;;9.90;99.90;;;;;;5101590;28;20394;-76
2022/12/23 10:50:14;;;;;;;7.05;4.65;;;9.90;99.90;;;;;;5110149;28;20115;-76
2022/12/23 10:52:43;;;;;;;9.05;3.80;;;9.90;99.90;;;;;;5091468;28;20024;-76
2022/12/23 10:55:24;;;;;;;9.70;5.00;;;10.00;99.90;;;;;;5091820;28;20032;-76
2022/12/23 10:57:51;;;;;;;5.47;4.28;;;10.00;99.90;;;;;;5072180;28;20078;-76
2022/12/23 11:00:22;;;;;;;7.88;3.60;;;10.00;99.90;;;;;;5108541;28;20536;-76
2022/12/23 11:03:07;;;;;;;3.90;2.90;;;9.90;99.90;;;;;;5109841;28;20031;-76
2022/12/23 11:05:33;;;;;;;8.70;5.65;;;9.90;99.90;;;;;;5091929;28;20032;-76
2022/12/23 11:08:00;;;;;;;8.52;5.00;;;9.90;99.90;;;;;;5110009;28;20028;-76
2022/12/23 11:10:31;;;;;;;8.18;3.95;;;9.90;99.90;;;;;;5092032;28;20111;-77
2022/12/23 11:12:58;;;;;;;7.93;6.40;;;9.90;99.90;;;;;;5089005;28;20066;-76
2022/12/23 11:15:33;;;;;;;5.43;4.43;;;9.90;99.90;;;;;;5090702;28;20051;-76
2022/12/23 11:18:01;;;;;;;8.45;6.32;;;9.80;99.90;;;;;;5058439;28;20043;-77
2022/12/23 11:20:28;;;;;;;10.30;4.85;;;9.70;99.90;;;;;;5073767;28;20036;-76
2022/12/23 11:23:00;;;;;;;6.78;4.85;;;9.60;99.90;;;;;;5084044;28;20028;-77
2022/12/23 11:25:41;;;;;;;5.95;3.85;;;9.60;99.90;;;;;;5111113;28;20099;-76
2022/12/23 11:28:15;;;;;;;15.20;4.18;;;9.60;99.90;;;;;;5076049;28;20028;-76
2022/12/23 11:30:54;;;;;;;8.30;4.68;;;9.50;99.90;;;;;;5111706;28;20027;-77
2022/12/23 11:33:29;;;;;;;5.95;3.35;;;9.50;99.90;;;;;;5070907;28;20036;-76
2022/12/23 11:36:13;;;;;;;6.60;5.45;;;9.40;99.90;;;;;;5094861;28;20017;-77
2022/12/23 11:39:03;;;;;;;10.68;6.68;;;9.40;99.90;;;;;;5086993;28;20020;-76
2022/12/23 11:41:34;;;;;;;17.15;5.78;;;9.40;99.90;;;;;;5093173;28;20431;-77
2022/12/23 11:44:19;;;;;;;8.63;5.03;;;9.40;99.90;;;;;;5074542;28;20028;-76
2022/12/23 11:46:45;;;;;;;9.55;5.07;;;9.40;99.90;;;;;;5082089;28;20036;-77
2022/12/23 11:49:26;;;;;;;9.50;6.32;;;9.40;99.90;;;;;;5056337;28;20093;-77
2022/12/23 11:52:04;;;;;;;4.80;4.20;;;9.40;99.90;;;;;;5077106;28;20020;-77
2022/12/23 11:54:31;;;;;;;6.97;3.47;;;9.50;99.90;;;;;;5077422;28;20036;-77
2022/12/23 11:57:00;;;;;;;12.15;4.95;;;9.50;99.90;;;;;;5070475;28;20012;-77
2022/12/23 11:59:34;;;;;;;9.80;6.00;;;9.40;99.90;;;;;;5077550;28;20090;-77
2022/12/23 12:02:09;;;;;;;13.95;4.75;;;9.40;99.90;;;;;;5092506;28;20052;-77
2022/12/23 12:04:36;;;;;;;11.68;4.53;;;9.40;99.90;;;;;;5099085;28;20082;-77
2022/12/23 12:07:03;;;;;;;7.82;6.22;;;9.50;99.90;;;;;;5128989;28;20039;-77
2022/12/23 12:09:31;;;;;;;7.88;4.93;;;9.50;99.90;;;;;;5110811;28;20031;-77
2022/12/23 12:12:12;;;;;;;16.23;7.35;;;9.50;99.90;;;;;;5128734;28;20019;-77
2022/12/23 12:14:44;;;;;;;16.52;7.18;;;9.60;99.90;;;;;;5110318;28;20047;-77
2022/12/23 12:17:28;;;;;;;16.42;7.47;;;9.60;99.90;;;;;;5128798;28;20028;-77
2022/12/23 12:20:32;;;;;;;8.55;6.85;;;9.60;99.90;;;;;;5114482;28;20066;-77
2022/12/23 12:23:12;;;;;;;10.73;6.88;;;9.60;99.90;;;;;;5108033;28;20023;-77
2022/12/23 12:25:41;;;;;;;13.50;8.40;;;9.60;99.90;;;;;;5108053;28;20032;-77
2022/12/23 12:28:16;;;;;;;11.57;6.93;;;9.60;99.90;;;;;;5089708;28;20036;-77
2022/12/23 12:30:56;;;;;;;10.32;7.13;;;9.50;99.90;;;;;;5108004;28;20042;-77
2022/12/23 12:33:41;;;;;;;6.63;6.07;;;9.50;99.90;;;;;;5089980;28;20076;-78
2022/12/23 12:36:15;;;;;;;6.75;6.25;;;9.50;99.90;;;;;;5069922;28;20055;-77
2022/12/23 12:38:44;;;;;;;12.30;8.02;;;9.60;99.90;;;;;;5086407;28;20074;-77
2022/12/23 12:41:36;;;;;;;5.65;4.90;;;9.60;99.90;;;;;;5087520;28;20021;-77
2022/12/23 12:44:17;;;;;;;11.70;5.80;;;9.60;99.90;;;;;;5069533;28;20035;-77
2022/12/23 12:46:49;;;;;;;5.75;5.15;;;9.60;99.90;;;;;;5069318;28;20037;-77
2022/12/23 12:49:53;;;;;;;8.68;5.35;;;9.50;99.90;;;;;;5087465;28;20039;-77
2022/12/23 12:52:22;;;;;;;12.15;6.40;;;9.50;99.90;;;;;;5070005;28;20040;-77
2022/12/23 12:55:17;;;;;;;6.25;5.43;;;9.50;99.90;;;;;;5106069;28;20059;-77
2022/12/23 12:57:43;;;;;;;8.40;7.03;;;9.50;99.90;;;;;;5051298;28;20133;-77
2022/12/23 13:00:23;;;;;;;10.23;6.45;;;9.50;99.90;;;;;;5107515;28;20040;-77
2022/12/23 13:03:04;;;;;;;8.55;5.85;;;9.50;99.90;;;;;;5125972;28;20023;-77
2022/12/23 13:06:19;;;;;;;8.27;5.78;;;9.40;99.90;;;;;;5109592;28;20396;-77
2022/12/23 13:08:57;;;;;;;8.43;5.63;;;9.40;99.90;;;;;;5026061;28;20034;-77
2022/12/23 13:11:49;;;;;;;7.45;6.75;;;9.40;99.90;;;;;;5008866;28;20416;-78
2022/12/23 13:14:28;;;;;;;8.77;6.03;;;9.50;99.90;;;;;;5106713;28;20480;-77
2022/12/23 13:17:11;;;;;;;7.68;5.35;;;9.50;99.90;;;;;;5125814;28;20023;-78
2022/12/23 13:19:50;;;;;;;8.60;5.35;;;9.40;99.90;;;;;;5109286;28;20534;-77
2022/12/23 13:22:23;;;;;;;7.35;5.80;;;9.50;99.90;;;;;;5127430;28;20035;-77
2022/12/23 13:24:54;;;;;;;5.63;5.03;;;9.40;99.90;;;;;;5109186;28;20409;-77
2022/12/23 13:28:03;;;;;;;6.57;6.07;;;9.30;99.90;;;;;;5092225;28;20053;-77
2022/12/23 13:30:38;;;;;;;6.50;5.80;;;9.30;99.90;;;;;;5048730;28;20047;-78